Airfield :
LOGIN :

Register | Disclaimer

   EN    FR    IT 

 










Legend :    VFR   Marginal VFR   IFR   Intensive IFR   Very Intensive IFR
Visi :
Ceiling :
>= 8 km
>= 3000ft
5 to 8 km
1000 to 3000 ft
1500m to 5 km
500 to 1000 ft
800 to 1500m
200 to 500 ft
< 800m
< 200 ft
Symbols :   Thunderstorms  Fog  Heavy snow  Heavy precipitations  Wind > 20 kt
SIGMETs :     Misc.  Thunderstorms  Icing  Turbulence  Mountain Waves  Volcanic Ashes






- Airport Elevation : 90 ft
- IATA code : NTE


LFRS - Nantes

CURRENT METAR :
  • 210830Z AUTO 32003KT 6000 OVC007 19/18 Q1016 BECMG SCT030

EXPIRED METARs :
  • 210800Z AUTO 33004KT 4500 BR OVC005 18/18 Q1016 BECMG 9999 NSW SCT030
  • 210730Z AUTO VRB03KT 3300 BR OVC003 18/18 Q1016 BECMG 9999 NSW SCT030
  • 210700Z AUTO VRB01KT 2600 BR OVC002 18/18 Q1016 TEMPO VV/// BECMG 9999 NSW
  • 210630Z AUTO VRB01KT 1600 1400 R03/1900U R21/P2000 BR VV/// 18/18 Q1016 BECMG 9999 NSW SCT030
  • 210600Z AUTO 24002KT 2000 1000 R03/1300D R21/P2000 BR VV/// 18/18 Q1016

TAF TAF LFRS
Valid from the 21 at 06:00 until the 22 at 12:00 UTC


210500Z 2106/2212 VRB03KT 3000 BR BKN005
TEMPO 2106/2108 0300 FG VV///
BECMG 2108/2110 9999 NSW SCT030
PROB30
TEMPO 2112/2118 -SHRA SCT030TCU
BECMG 2121/2124 3000 BR BKN008
TEMPO 2200/2207 0300 FG VV///
BECMG 2208/2210 9999 NSW SCT030
BECMG 2210/2212 28010KT
ATIS : +33 2 40 05 12 74



MET'MAP, your aeronautical weather chart ! - Copyright ORBIFLY December 2007 - Disclaimer

ORBIFLY MET'MAP TEAM :

Programming & Development : Alexandra Zaïnal
Concept & original design : Baudouin d'Aumeries
Assistance for programming : Marc-Olivier Méhu
Technical & hardware support : Manuel Goepfert

Contact : metmap@orbifly.com




SOURCES & CREDITS :

   NOAA